createdAt,value
2022-09-26T00:00:06.675Z,73.88
2022-09-26T00:02:33.065Z,75.85
2022-09-26T00:04:59.400Z,72.00
2022-09-26T00:07:25.715Z,74.32
2022-09-26T00:09:52.073Z,59.45
2022-09-26T00:12:18.380Z,58.08
2022-09-26T00:14:44.693Z,59.60
2022-09-26T00:17:11.310Z,63.28
2022-09-26T00:19:37.793Z,51.55
2022-09-26T00:22:04.072Z,50.05
2022-09-26T00:24:31.268Z,52.35
2022-09-26T00:26:57.569Z,56.30
2022-09-26T00:29:23.999Z,49.83
2022-09-26T00:31:50.384Z,41.85
2022-09-26T00:34:17.820Z,36.72
2022-09-26T00:36:44.191Z,32.15
2022-09-26T00:39:12.362Z,22.77
2022-09-26T00:41:39.093Z,17.50
2022-09-26T00:44:25.372Z,14.38
2022-09-26T00:46:51.900Z,21.23
2022-09-26T00:49:24.042Z,27.65
2022-09-26T00:51:52.885Z,26.92
2022-09-26T00:54:22.555Z,31.48
2022-09-26T00:56:50.357Z,34.45
2022-09-26T00:59:22.897Z,41.88
2022-09-26T01:01:53.289Z,39.58
2022-09-26T01:04:19.877Z,40.05
2022-09-26T01:06:46.415Z,44.15
2022-09-26T01:09:14.199Z,44.50
2022-09-26T01:11:41.578Z,46.17
2022-09-26T01:14:09.681Z,47.92
2022-09-26T01:16:37.415Z,49.75
2022-09-26T01:19:06.388Z,39.50
2022-09-26T01:21:51.839Z,32.08
2022-09-26T01:24:18.116Z,26.02
2022-09-26T01:27:19.979Z,31.17
2022-09-26T01:30:04.677Z,37.55
2022-09-26T01:32:49.132Z,30.88
2022-09-26T01:35:21.910Z,35.45
2022-09-26T01:37:49.304Z,30.90
2022-09-26T01:40:26.028Z,31.00
2022-09-26T01:43:13.824Z,30.00
2022-09-26T01:45:49.180Z,29.52
2022-09-26T01:48:19.963Z,35.10
2022-09-26T01:50:50.678Z,38.17
2022-09-26T01:53:23.113Z,38.08
2022-09-26T01:55:57.697Z,36.95
2022-09-26T01:58:27.615Z,34.72
2022-09-26T02:00:55.756Z,34.03
2022-09-26T02:03:27.422Z,37.05
2022-09-26T02:06:03.238Z,36.22
2022-09-26T02:08:40.353Z,38.47
2022-09-26T02:11:09.416Z,36.30
2022-09-26T02:13:37.161Z,35.05
2022-09-26T02:16:12.781Z,37.42
2022-09-26T02:23:32.348Z,41.17
2022-09-26T02:26:00.076Z,41.72
2022-09-26T02:28:26.470Z,38.72
2022-09-26T02:31:01.358Z,35.88
2022-09-26T02:33:30.943Z,46.65
2022-09-26T02:35:58.324Z,38.88
2022-09-26T02:38:29.219Z,38.17
2022-09-26T02:41:13.925Z,46.55
2022-09-26T02:43:58.748Z,39.10
2022-09-26T02:46:38.322Z,44.55
2022-09-26T02:49:20.057Z,44.78
2022-09-26T02:51:54.440Z,52.30
2022-09-26T02:54:28.836Z,48.97
2022-09-26T02:57:09.041Z,51.10
2022-09-26T02:59:41.033Z,47.40
2022-09-26T03:02:15.638Z,47.83
2022-09-26T03:04:42.011Z,45.03
2022-09-26T03:07:11.706Z,46.00
2022-09-26T03:09:38.501Z,47.08
2022-09-26T03:12:06.212Z,42.75
2022-09-26T03:14:34.081Z,43.83
2022-09-26T03:17:01.261Z,41.15
2022-09-26T03:19:34.945Z,40.65
2022-09-26T03:22:02.577Z,40.25
2022-09-26T03:24:29.166Z,35.05
2022-09-26T03:26:55.874Z,36.60
2022-09-26T03:29:23.051Z,36.78
2022-09-26T03:31:50.463Z,38.90
2022-09-26T03:34:19.736Z,38.22
2022-09-26T03:36:46.055Z,38.88
2022-09-26T03:39:12.499Z,40.78
2022-09-26T03:41:42.210Z,40.33
2022-09-26T03:44:08.703Z,50.55
2022-09-26T03:46:39.583Z,42.30
2022-09-26T03:49:06.795Z,38.78
2022-09-26T03:51:33.210Z,38.95
2022-09-26T03:53:59.583Z,41.38
2022-09-26T03:56:27.043Z,43.67
2022-09-26T03:58:53.421Z,35.83
2022-09-26T04:01:21.287Z,38.53
2022-09-26T04:03:50.802Z,43.80
2022-09-26T04:06:20.093Z,40.33
2022-09-26T04:08:48.296Z,40.17
2022-09-26T04:11:15.556Z,51.30
2022-09-26T04:13:52.819Z,61.33
2022-09-26T04:16:20.462Z,52.22
2022-09-26T04:18:47.076Z,53.33
2022-09-26T04:21:14.238Z,55.67
2022-09-26T04:23:49.799Z,51.80
2022-09-26T04:26:22.887Z,47.05
2022-09-26T04:28:52.058Z,49.22
2022-09-26T04:31:18.467Z,51.22
2022-09-26T04:33:45.191Z,43.45
2022-09-26T04:36:12.731Z,48.03
2022-09-26T04:38:42.237Z,41.78
2022-09-26T04:41:15.603Z,46.17
2022-09-26T04:43:42.415Z,36.15
2022-09-26T04:46:10.078Z,37.00
2022-09-26T04:48:36.521Z,37.58
2022-09-26T04:51:07.199Z,33.55
2022-09-26T04:53:34.121Z,34.00
2022-09-26T04:56:00.891Z,32.97
2022-09-26T04:58:27.180Z,28.83
2022-09-26T05:00:53.775Z,32.00
2022-09-26T05:03:20.216Z,29.30
2022-09-26T05:05:50.061Z,31.90
2022-09-26T05:08:16.940Z,30.13
2022-09-26T05:10:43.582Z,30.58
2022-09-26T05:13:10.499Z,36.45
2022-09-26T05:15:39.987Z,33.72
2022-09-26T05:18:07.837Z,34.22
2022-09-26T05:20:38.212Z,34.53
2022-09-26T05:23:05.682Z,35.92
2022-09-26T05:25:55.538Z,44.97
2022-09-26T05:28:22.019Z,45.25
2022-09-26T05:30:50.314Z,39.67
2022-09-26T05:33:16.867Z,43.67
2022-09-26T05:35:43.224Z,39.88
2022-09-26T05:38:09.659Z,55.28
2022-09-26T05:40:54.738Z,44.13
2022-09-26T05:43:22.767Z,36.67
2022-09-26T05:45:49.257Z,42.00
2022-09-26T05:48:16.342Z,38.72
2022-09-26T05:50:44.040Z,36.58
2022-09-26T05:53:10.402Z,34.05
2022-09-26T05:55:37.815Z,34.88
2022-09-26T05:58:05.697Z,37.83
2022-09-26T06:00:32.015Z,30.45
2022-09-26T06:02:58.969Z,33.70
2022-09-26T06:05:25.645Z,33.90
2022-09-26T06:07:52.827Z,31.63
2022-09-26T06:10:22.022Z,28.98
2022-09-26T06:12:51.048Z,32.63
2022-09-26T06:15:17.915Z,26.52
2022-09-26T06:17:44.884Z,26.30
2022-09-26T06:20:11.189Z,23.45
2022-09-26T06:22:41.041Z,23.35
2022-09-26T06:25:08.294Z,22.35
2022-09-26T06:27:38.653Z,19.17
2022-09-26T06:30:06.412Z,21.55
2022-09-26T06:32:32.746Z,19.60
2022-09-26T06:34:59.250Z,13.93
2022-09-26T06:37:25.538Z,21.98
2022-09-26T06:39:54.689Z,16.60
2022-09-26T06:42:25.336Z,19.70
2022-09-26T06:44:51.906Z,16.70
2022-09-26T06:47:19.612Z,23.30
2022-09-26T06:49:46.485Z,22.20
2022-09-26T06:52:14.045Z,26.05
2022-09-26T06:54:40.375Z,19.42
2022-09-26T06:57:07.981Z,24.90
2022-09-26T06:59:36.811Z,27.27
2022-09-26T07:02:03.393Z,26.48
2022-09-26T07:04:30.502Z,25.00
2022-09-26T07:06:58.487Z,21.80
2022-09-26T07:09:25.778Z,17.88
2022-09-26T07:12:13.580Z,28.30
2022-09-26T07:14:38.687Z,19.15
2022-09-26T07:17:04.968Z,16.30
2022-09-26T07:19:31.315Z,12.82
2022-09-26T07:21:57.640Z,15.93
2022-09-26T07:24:23.974Z,13.18
2022-09-26T07:26:50.343Z,14.60
2022-09-26T07:29:16.682Z,15.10
2022-09-26T07:31:43.046Z,14.25
2022-09-26T07:34:10.799Z,11.63
2022-09-26T07:36:40.615Z,9.95
2022-09-26T07:39:06.972Z,10.55
2022-09-26T07:41:33.321Z,15.90
2022-09-26T07:47:04.891Z,13.27
2022-09-26T07:49:50.202Z,10.82
2022-09-26T07:52:17.749Z,11.07
2022-09-26T07:54:46.034Z,15.55
2022-09-26T07:57:12.567Z,10.48
2022-09-26T07:59:38.869Z,11.05
2022-09-26T08:02:05.267Z,8.68
2022-09-26T08:04:31.609Z,14.73
2022-09-26T08:06:59.473Z,8.93
2022-09-26T08:09:25.902Z,5.68
2022-09-26T08:11:52.328Z,8.23
2022-09-26T08:14:18.615Z,7.93
2022-09-26T08:16:44.922Z,7.85
2022-09-26T08:19:12.764Z,8.35
2022-09-26T08:21:39.262Z,5.90
2022-09-26T08:24:05.686Z,10.73
2022-09-26T08:26:32.173Z,7.15
2022-09-26T08:28:59.926Z,4.63
2022-09-26T08:31:26.797Z,5.35
2022-09-26T08:33:54.000Z,9.18
2022-09-26T08:36:20.903Z,7.57
2022-09-26T08:38:49.213Z,6.80
2022-09-26T08:41:38.753Z,9.43
2022-09-26T08:44:25.035Z,7.07
2022-09-26T08:47:03.031Z,7.57
2022-09-26T08:49:48.387Z,10.05
2022-09-26T08:52:23.740Z,7.80
2022-09-26T08:54:50.819Z,11.10
2022-09-26T08:57:37.397Z,10.57
2022-09-26T09:00:15.746Z,5.65
2022-09-26T09:02:49.114Z,7.90
2022-09-26T09:05:15.702Z,8.43
2022-09-26T09:07:42.002Z,6.90
2022-09-26T09:10:14.563Z,7.43
2022-09-26T09:12:47.101Z,7.65
2022-09-26T09:15:26.454Z,5.93
2022-09-26T09:18:02.903Z,5.63
2022-09-26T09:20:38.269Z,12.10
2022-09-26T09:23:13.169Z,4.55
2022-09-26T09:27:52.467Z,2.97
2022-09-26T09:29:01.984Z,5.32
2022-09-26T09:31:30.218Z,6.82
2022-09-26T09:33:59.639Z,6.72
2022-09-26T09:36:29.220Z,2.58
2022-09-26T09:38:57.734Z,4.63
2022-09-26T09:41:24.839Z,7.78
2022-09-26T09:43:56.168Z,2.60
2022-09-26T09:46:30.165Z,6.95
2022-09-26T09:48:57.975Z,5.22
2022-09-26T09:51:51.471Z,3.03
2022-09-26T09:54:23.965Z,4.15
2022-09-26T09:57:09.176Z,5.53
2022-09-26T09:59:44.921Z,5.93
2022-09-26T10:09:43.993Z,4.78
2022-09-26T10:12:16.849Z,5.50
2022-09-26T10:14:50.943Z,4.93
2022-09-26T10:17:20.264Z,3.80
2022-09-26T10:19:47.086Z,11.63
2022-09-26T10:22:24.090Z,2.90
2022-09-26T10:24:51.362Z,3.67
2022-09-26T10:27:23.390Z,3.72
2022-09-26T10:30:00.027Z,5.70
2022-09-26T10:32:26.889Z,3.78
2022-09-26T10:35:07.822Z,4.28
2022-09-26T10:37:36.393Z,3.78
2022-09-26T10:40:21.623Z,4.00
2022-09-26T10:42:47.979Z,1.80
2022-09-26T10:45:20.289Z,3.53
2022-09-26T10:47:48.494Z,4.45
2022-09-26T10:50:22.057Z,5.75
2022-09-26T10:52:49.731Z,5.72
2022-09-26T10:55:17.738Z,5.45
2022-09-26T10:57:46.967Z,4.97
2022-09-26T11:00:21.892Z,5.05
2022-09-26T11:02:53.147Z,2.38
2022-09-26T11:05:38.816Z,6.90
2022-09-26T11:08:06.575Z,5.57
2022-09-26T11:10:34.048Z,5.00
2022-09-26T11:13:40.510Z,4.82
2022-09-26T11:16:13.028Z,5.90
2022-09-26T11:18:45.694Z,3.22
2022-09-26T11:30:42.762Z,3.08
2022-09-26T11:33:12.661Z,4.65
2022-09-26T11:35:51.660Z,3.75
2022-09-26T11:38:41.860Z,5.15
2022-09-26T11:41:16.531Z,5.55
2022-09-26T11:43:51.880Z,5.03
2022-09-26T11:46:31.132Z,4.78
2022-09-26T11:49:00.896Z,3.58
2022-09-26T11:51:43.782Z,4.43
2022-09-26T11:54:28.793Z,3.05
2022-09-26T11:57:04.921Z,3.42
2022-09-26T11:59:42.527Z,3.95
2022-09-26T12:02:31.189Z,5.18
2022-09-26T12:05:00.737Z,3.67
2022-09-26T12:07:33.071Z,5.10
2022-09-26T12:10:14.638Z,3.90
2022-09-26T12:13:01.201Z,6.53
2022-09-26T12:15:33.253Z,4.15
2022-09-26T12:18:17.643Z,2.40
2022-09-26T12:20:56.221Z,2.45
2022-09-26T12:23:44.115Z,2.25
2022-09-26T12:26:14.239Z,2.75
2022-09-26T12:28:55.849Z,4.47
2022-09-26T12:31:28.212Z,3.92
2022-09-26T12:34:23.715Z,3.72
2022-09-26T12:36:50.860Z,3.25
2022-09-26T12:39:37.470Z,3.05
2022-09-26T12:42:15.417Z,2.00
2022-09-26T12:44:44.468Z,5.32
2022-09-26T12:47:22.364Z,3.05
2022-09-26T12:49:55.076Z,2.72
2022-09-26T12:52:27.733Z,4.68
2022-09-26T12:55:03.151Z,4.22
2022-09-26T12:57:29.488Z,5.68
2022-09-26T12:59:58.957Z,2.47
2022-09-26T13:02:33.568Z,2.28
2022-09-26T13:05:18.813Z,2.88
2022-09-26T13:07:57.317Z,2.30
2022-09-26T13:10:52.758Z,6.38
2022-09-26T13:13:24.074Z,5.88
2022-09-26T13:16:08.112Z,2.95
2022-09-26T13:18:38.088Z,2.45
2022-09-26T13:21:09.034Z,2.58
2022-09-26T13:23:48.671Z,3.45
2022-09-26T13:26:17.275Z,4.38
2022-09-26T13:29:12.841Z,5.15
2022-09-26T13:31:40.254Z,3.92
2022-09-26T13:34:12.932Z,2.17
2022-09-26T13:36:41.883Z,3.88
2022-09-26T13:39:26.936Z,2.78
2022-09-26T13:41:56.401Z,2.45
2022-09-26T13:44:29.047Z,2.63
2022-09-26T13:47:12.466Z,3.95
2022-09-26T13:49:54.306Z,5.35
2022-09-26T13:52:27.635Z,6.57
2022-09-26T13:55:20.068Z,3.65
2022-09-26T13:58:04.003Z,3.80
2022-09-26T14:00:30.495Z,2.58
2022-09-26T14:03:19.202Z,3.55
2022-09-26T14:05:50.868Z,3.70
2022-09-26T14:08:51.291Z,3.28
2022-09-26T14:11:30.653Z,6.90
2022-09-26T14:14:18.924Z,6.65
2022-09-26T14:16:46.058Z,2.45
2022-09-26T14:19:31.136Z,3.28
2022-09-26T14:22:02.795Z,7.25
2022-09-26T14:24:42.057Z,2.78
2022-09-26T14:27:11.264Z,4.40
2022-09-26T14:29:42.335Z,3.90
2022-09-26T14:32:10.146Z,28.13
2022-09-26T14:34:46.967Z,4.82
2022-09-26T14:37:25.425Z,12.43
2022-09-26T14:39:53.177Z,8.30
2022-09-26T14:42:23.569Z,7.00
2022-09-26T14:44:55.793Z,2.72
2022-09-26T14:47:22.455Z,2.65
2022-09-26T14:49:53.253Z,4.43
2022-09-26T14:52:20.415Z,4.47
2022-09-26T14:54:47.140Z,3.92
2022-09-26T14:57:21.076Z,2.30
2022-09-26T14:59:47.879Z,4.07
2022-09-26T15:02:14.888Z,4.18
2022-09-26T15:04:43.720Z,5.90
2022-09-26T15:07:18.902Z,4.93
2022-09-26T15:09:49.101Z,4.88
2022-09-26T15:12:17.996Z,1.80
2022-09-26T15:14:49.913Z,4.05
2022-09-26T15:17:24.917Z,5.72
2022-09-26T15:19:53.172Z,2.90
2022-09-26T15:22:20.713Z,2.30
2022-09-26T15:24:47.140Z,3.05
2022-09-26T15:27:27.051Z,4.18
2022-09-26T15:29:57.953Z,1.33
2022-09-26T15:32:28.924Z,2.20
2022-09-26T15:34:55.768Z,5.28
2022-09-26T15:37:30.007Z,2.28
2022-09-26T15:39:59.360Z,6.00
2022-09-26T15:42:44.498Z,4.85
2022-09-26T15:45:16.806Z,4.15
2022-09-26T15:47:43.279Z,4.00
2022-09-26T15:50:17.396Z,3.17
2022-09-26T15:52:46.865Z,3.10
2022-09-26T15:55:19.231Z,2.47
2022-09-26T15:57:47.153Z,3.95
2022-09-26T16:00:14.949Z,5.25
2022-09-26T16:02:42.173Z,4.75
2022-09-26T16:05:12.711Z,3.70
2022-09-26T16:07:41.347Z,3.90
2022-09-26T16:10:19.817Z,3.47
2022-09-26T16:12:47.710Z,7.93
2022-09-26T16:15:19.151Z,8.90
2022-09-26T16:17:53.118Z,3.63
2022-09-26T16:20:19.838Z,2.05
2022-09-26T16:22:49.311Z,7.82
2022-09-26T16:25:15.744Z,6.70
2022-09-26T16:27:42.688Z,6.97
2022-09-26T16:30:23.657Z,5.00
2022-09-26T16:32:50.843Z,4.82
2022-09-26T16:35:19.644Z,6.55
2022-09-26T16:38:07.411Z,3.35
2022-09-26T16:40:35.010Z,5.57
2022-09-26T16:43:08.081Z,4.65
2022-09-26T16:45:34.410Z,10.05
2022-09-26T16:48:00.960Z,4.03
2022-09-26T16:50:28.880Z,4.97
2022-09-26T16:52:55.389Z,3.83
2022-09-26T16:55:22.793Z,6.40
2022-09-26T16:57:49.139Z,6.50
2022-09-26T17:00:35.872Z,4.95
2022-09-26T17:03:03.219Z,10.80
2022-09-26T17:05:29.716Z,4.80
2022-09-26T17:07:56.174Z,6.78
2022-09-26T17:10:24.441Z,6.10
2022-09-26T17:12:52.901Z,4.28
2022-09-26T17:15:26.050Z,7.07
2022-09-26T17:17:53.810Z,6.50
2022-09-26T17:20:20.851Z,2.95
2022-09-26T17:22:47.207Z,5.10
2022-09-26T17:25:13.717Z,5.35
2022-09-26T17:27:41.036Z,3.72
2022-09-26T17:30:10.898Z,4.22
2022-09-26T17:32:37.773Z,4.03
2022-09-26T17:35:08.328Z,3.47
2022-09-26T17:37:34.661Z,2.55
2022-09-26T17:40:01.127Z,5.90
2022-09-26T17:42:27.577Z,5.05
2022-09-26T17:44:54.611Z,3.35
2022-09-26T17:47:21.363Z,5.38
2022-09-26T17:49:48.974Z,4.85
2022-09-26T17:52:24.511Z,6.57
2022-09-26T17:54:53.798Z,4.20
2022-09-26T17:57:20.752Z,6.75
2022-09-26T17:59:47.174Z,6.03
2022-09-26T18:02:19.149Z,4.13
2022-09-26T18:04:46.269Z,8.00
2022-09-26T18:07:16.252Z,6.53
2022-09-26T18:09:43.211Z,4.68
2022-09-26T18:12:13.643Z,5.53
2022-09-26T18:14:41.797Z,5.20
2022-09-26T18:17:15.157Z,6.95
2022-09-26T18:19:41.661Z,5.55
2022-09-26T18:22:14.500Z,7.90
2022-09-26T18:24:40.906Z,5.15
2022-09-26T18:27:10.731Z,7.78
2022-09-26T18:29:39.034Z,7.10
2022-09-26T18:32:06.485Z,9.98
2022-09-26T18:34:32.915Z,10.98
2022-09-26T18:37:00.492Z,3.15
2022-09-26T18:39:27.099Z,7.00
2022-09-26T18:41:56.377Z,6.28
2022-09-26T18:44:23.933Z,7.07
2022-09-26T18:46:50.352Z,6.47
2022-09-26T18:49:17.392Z,6.05
2022-09-26T18:51:45.210Z,3.90
2022-09-26T18:54:16.429Z,3.17
2022-09-26T18:57:01.935Z,3.95
2022-09-26T18:59:31.029Z,2.95
2022-09-26T19:01:59.692Z,4.38
2022-09-26T19:04:26.361Z,3.63
2022-09-26T19:06:58.920Z,3.05
2022-09-26T19:09:27.090Z,3.45
2022-09-26T19:11:53.446Z,3.70
2022-09-26T19:14:19.873Z,2.55
2022-09-26T19:16:47.408Z,3.50
2022-09-26T19:19:13.936Z,2.72
2022-09-26T19:21:47.420Z,2.03
2022-09-26T19:24:20.959Z,4.03
2022-09-26T19:26:49.721Z,6.22
2022-09-26T19:29:18.380Z,3.85
2022-09-26T19:31:44.827Z,5.55
2022-09-26T19:34:15.050Z,5.47
2022-09-26T19:36:41.614Z,2.70
2022-09-26T19:39:12.805Z,3.80
2022-09-26T19:41:39.100Z,3.15
2022-09-26T19:44:05.739Z,3.83
2022-09-26T19:46:32.175Z,3.90
2022-09-26T19:48:58.897Z,2.17
2022-09-26T19:51:25.270Z,3.00
2022-09-26T19:53:51.588Z,2.97
2022-09-26T19:56:18.360Z,3.20
2022-09-26T19:58:53.932Z,3.95
2022-09-26T20:01:22.798Z,1.80
2022-09-26T20:03:49.728Z,3.70
2022-09-26T20:06:21.117Z,3.95
2022-09-26T20:08:53.754Z,3.03
2022-09-26T20:11:22.368Z,2.35
2022-09-26T20:14:07.820Z,2.30
2022-09-26T20:16:38.536Z,2.58
2022-09-26T20:19:05.431Z,4.38
2022-09-26T20:21:32.393Z,6.45
2022-09-26T20:24:00.409Z,5.03
2022-09-26T20:26:29.510Z,2.90
2022-09-26T20:28:56.686Z,6.30
2022-09-26T20:31:24.703Z,3.17
2022-09-26T20:33:51.476Z,3.38
2022-09-26T20:36:26.847Z,2.65
2022-09-26T20:38:55.568Z,3.25
2022-09-26T20:41:29.410Z,3.92
2022-09-26T20:44:01.856Z,3.38
2022-09-26T20:46:31.486Z,5.82
2022-09-26T20:48:58.089Z,6.60
2022-09-26T20:51:27.290Z,2.88
2022-09-26T20:53:53.843Z,1.50
2022-09-26T20:56:21.361Z,1.98
2022-09-26T20:58:48.011Z,1.92
2022-09-26T21:01:15.526Z,3.00
2022-09-26T21:03:49.422Z,3.38
2022-09-26T21:06:20.744Z,1.55
2022-09-26T21:08:47.945Z,3.10
2022-09-26T21:11:15.358Z,2.90
2022-09-26T21:13:42.355Z,4.78
2022-09-26T21:16:13.376Z,2.80
2022-09-26T21:18:40.088Z,1.98
2022-09-26T21:21:08.055Z,3.45
2022-09-26T21:23:42.001Z,2.53
2022-09-26T21:26:18.908Z,3.13
2022-09-26T21:28:45.306Z,1.85
2022-09-26T21:31:18.147Z,2.60
2022-09-26T21:33:45.184Z,2.90
2022-09-26T21:36:11.666Z,1.95
2022-09-26T21:38:38.067Z,2.65
2022-09-26T21:41:04.989Z,2.38
2022-09-26T21:43:33.149Z,4.45
2022-09-26T21:45:59.576Z,3.83
2022-09-26T21:48:27.111Z,1.73
2022-09-26T21:50:58.227Z,3.35
2022-09-26T21:53:31.563Z,2.00
2022-09-26T21:56:03.792Z,3.50
2022-09-26T22:03:26.204Z,1.77
2022-09-26T22:05:52.564Z,3.45
2022-09-26T22:08:19.118Z,2.83
2022-09-26T22:10:45.457Z,1.30
2022-09-26T22:13:11.818Z,4.97
2022-09-26T22:15:38.435Z,3.97
2022-09-26T22:18:04.820Z,1.77
2022-09-26T22:20:31.218Z,1.48
2022-09-26T22:22:57.779Z,2.95
2022-09-26T22:25:24.093Z,3.17
2022-09-26T22:27:50.656Z,2.45
2022-09-26T22:30:17.022Z,8.18
2022-09-26T22:32:43.356Z,6.38
2022-09-26T22:35:09.880Z,4.28
2022-09-26T22:37:36.280Z,4.10
2022-09-26T22:40:02.918Z,3.45
2022-09-26T22:42:29.238Z,3.22
2022-09-26T22:44:55.616Z,4.30
2022-09-26T22:47:22.377Z,3.00
2022-09-26T22:49:49.655Z,6.20
2022-09-26T22:52:16.066Z,4.20
2022-09-26T22:54:42.466Z,3.40
2022-09-26T22:57:08.941Z,4.72
2022-09-26T22:59:35.313Z,6.00
2022-09-26T23:02:01.775Z,4.55
2022-09-26T23:04:46.828Z,2.70
2022-09-26T23:07:14.116Z,8.98
2022-09-26T23:09:40.585Z,6.10
2022-09-26T23:12:07.666Z,4.70
2022-09-26T23:14:34.483Z,4.22
2022-09-26T23:17:00.955Z,3.13
2022-09-26T23:19:27.413Z,3.75
2022-09-26T23:21:53.948Z,5.15
2022-09-26T23:24:20.462Z,5.68
2022-09-26T23:26:46.842Z,2.35
2022-09-26T23:29:13.195Z,3.50
2022-09-26T23:31:39.632Z,3.20
2022-09-26T23:34:06.003Z,2.95
2022-09-26T23:36:32.484Z,3.47
2022-09-26T23:38:59.255Z,6.25
2022-09-26T23:41:25.677Z,3.28
2022-09-26T23:43:52.032Z,2.15
2022-09-26T23:46:18.557Z,4.90
2022-09-26T23:48:45.821Z,2.78
2022-09-26T23:51:12.163Z,4.10
2022-09-26T23:53:38.604Z,4.20
2022-09-26T23:56:09.117Z,5.53
2022-09-26T23:58:35.956Z,4.78
